createdAt,value
2024-03-02T00:00:57.451Z,7.11
2024-03-02T00:03:26.126Z,7.14
2024-03-02T00:05:54.463Z,7.12
2024-03-02T00:08:27.676Z,7.12
2024-03-02T00:11:01.128Z,7.14
2024-03-02T00:13:29.461Z,7.13
2024-03-02T00:15:58.869Z,7.16
2024-03-02T00:18:35.860Z,7.13
2024-03-02T00:21:04.688Z,7.10
2024-03-02T00:23:33.240Z,7.09
2024-03-02T00:26:01.994Z,7.06
2024-03-02T00:28:39.741Z,7.02
2024-03-02T00:31:14.236Z,7.00
2024-03-02T00:33:51.115Z,7.00
2024-03-02T00:36:27.173Z,6.97
2024-03-02T00:38:57.686Z,6.93
2024-03-02T00:41:27.512Z,6.92
2024-03-02T00:44:07.390Z,6.90
2024-03-02T00:46:42.740Z,6.88
2024-03-02T00:49:23.294Z,6.88
2024-03-02T00:51:54.087Z,6.92
2024-03-02T00:54:25.835Z,6.92
2024-03-02T00:56:56.604Z,6.91
2024-03-02T00:59:25.634Z,6.92
2024-03-02T01:01:55.198Z,6.90
2024-03-02T01:04:23.690Z,6.89
2024-03-02T01:06:51.566Z,6.88
2024-03-02T01:09:20.993Z,6.90
2024-03-02T01:11:49.368Z,6.89
2024-03-02T01:14:17.582Z,6.90
2024-03-02T01:16:45.896Z,6.86
2024-03-02T01:19:14.213Z,6.83
2024-03-02T01:21:42.537Z,6.80
2024-03-02T01:24:10.790Z,6.79
2024-03-02T01:26:39.068Z,6.80
2024-03-02T01:29:07.285Z,6.81
2024-03-02T01:31:35.586Z,6.82
2024-03-02T01:34:04.124Z,6.81
2024-03-02T01:36:32.517Z,6.80
2024-03-02T01:39:00.789Z,6.83
2024-03-02T01:41:28.985Z,6.86
2024-03-02T01:43:57.262Z,6.87
2024-03-02T01:46:25.775Z,6.86
2024-03-02T01:48:54.319Z,6.86
2024-03-02T01:51:22.818Z,6.87
2024-03-02T01:53:51.064Z,6.85
2024-03-02T01:56:19.372Z,6.87
2024-03-02T01:58:47.605Z,6.88
2024-03-02T02:01:16.011Z,6.89
2024-03-02T02:03:44.318Z,6.86
2024-03-02T02:06:12.863Z,6.86
2024-03-02T02:08:41.097Z,6.87
2024-03-02T02:11:09.456Z,6.91
2024-03-02T02:13:37.779Z,6.93
2024-03-02T02:16:09.559Z,6.92
2024-03-02T02:18:37.998Z,6.95
2024-03-02T02:21:05.969Z,6.95
2024-03-02T02:23:34.180Z,6.99
2024-03-02T02:26:03.897Z,6.98
2024-03-02T02:28:34.789Z,6.98
2024-03-02T02:31:04.142Z,6.93
2024-03-02T02:33:32.522Z,6.95
2024-03-02T02:36:00.750Z,6.95
2024-03-02T02:38:28.956Z,6.87
2024-03-02T02:40:57.181Z,6.91
2024-03-02T02:43:25.367Z,6.91
2024-03-02T02:45:53.846Z,6.91
2024-03-02T02:48:22.233Z,6.92
2024-03-02T02:50:51.548Z,6.94
2024-03-02T02:53:20.304Z,6.93
2024-03-02T02:55:48.562Z,6.94
2024-03-02T02:58:16.876Z,6.94
2024-03-02T03:00:45.229Z,6.94
2024-03-02T03:03:13.500Z,6.92
2024-03-02T03:05:41.706Z,6.86
2024-03-02T03:08:09.928Z,6.86
2024-03-02T03:10:38.198Z,6.90
2024-03-02T03:13:09.244Z,6.88
2024-03-02T03:15:38.421Z,6.88
2024-03-02T03:18:07.386Z,6.88
2024-03-02T03:20:35.865Z,6.88
2024-03-02T03:23:05.022Z,6.91
2024-03-02T03:25:33.558Z,6.84
2024-03-02T03:28:04.198Z,6.91
2024-03-02T03:30:32.532Z,6.89
2024-03-02T03:33:00.837Z,6.92
2024-03-02T03:35:29.063Z,6.90
2024-03-02T03:37:57.242Z,6.93
2024-03-02T03:40:25.160Z,6.94
2024-03-02T03:42:53.380Z,6.95
2024-03-02T03:45:24.545Z,6.94
2024-03-02T03:47:52.820Z,6.95
2024-03-02T03:50:21.050Z,6.98
2024-03-02T03:52:49.283Z,6.98
2024-03-02T03:55:17.509Z,7.01
2024-03-02T03:57:45.557Z,6.98
2024-03-02T04:00:14.342Z,6.99
2024-03-02T04:02:42.776Z,7.00
2024-03-02T04:05:12.051Z,6.98
2024-03-02T04:07:41.826Z,7.01
2024-03-02T04:10:13.865Z,7.00
2024-03-02T04:12:42.378Z,6.99
2024-03-02T04:15:10.721Z,6.98
2024-03-02T04:17:39.040Z,6.97
2024-03-02T04:20:07.700Z,6.95
2024-03-02T04:22:36.733Z,6.94
2024-03-02T04:25:05.848Z,6.93
2024-03-02T04:27:34.620Z,6.85
2024-03-02T04:30:03.255Z,6.88
2024-03-02T04:32:31.540Z,6.88
2024-03-02T04:35:00.069Z,6.87
2024-03-02T04:37:28.374Z,6.86
2024-03-02T04:39:56.591Z,6.85
2024-03-02T04:42:25.877Z,6.79
2024-03-02T04:44:54.023Z,6.74
2024-03-02T04:47:22.343Z,6.71
2024-03-02T04:49:50.592Z,6.72
2024-03-02T04:52:19.294Z,6.71
2024-03-02T04:55:05.182Z,6.74
2024-03-02T04:57:33.476Z,6.74
2024-03-02T05:00:02.020Z,6.73
2024-03-02T05:02:30.224Z,6.73
2024-03-02T05:04:58.412Z,6.72
2024-03-02T05:07:26.617Z,6.69
2024-03-02T05:09:54.862Z,6.63
2024-03-02T05:12:48.392Z,6.61
2024-03-02T05:15:17.289Z,6.59
2024-03-02T05:17:45.866Z,6.58
2024-03-02T05:20:14.290Z,6.62
2024-03-02T05:22:42.614Z,6.63
2024-03-02T05:25:10.869Z,6.63
2024-03-02T05:27:39.280Z,6.65
2024-03-02T05:30:08.578Z,6.65
2024-03-02T05:32:36.955Z,6.64
2024-03-02T05:35:06.155Z,6.62
2024-03-02T05:37:34.971Z,6.54
2024-03-02T05:40:03.809Z,6.57
2024-03-02T05:42:32.130Z,6.61
2024-03-02T05:45:00.560Z,6.62
2024-03-02T05:47:29.003Z,6.64
2024-03-02T05:49:57.295Z,6.66
2024-03-02T05:52:25.518Z,6.69
2024-03-02T05:54:53.846Z,6.71
2024-03-02T05:57:35.068Z,6.75
2024-03-02T06:00:05.691Z,6.77
2024-03-02T06:02:35.697Z,6.76
2024-03-02T06:05:04.993Z,6.80
2024-03-02T06:07:33.264Z,6.82
2024-03-02T06:10:01.836Z,6.87
2024-03-02T06:12:30.174Z,6.89
2024-03-02T06:14:58.449Z,6.93
2024-03-02T06:17:26.697Z,6.94
2024-03-02T06:19:54.956Z,6.94
2024-03-02T06:22:24.055Z,6.98
2024-03-02T06:24:52.637Z,6.98
2024-03-02T06:27:21.640Z,7.00
2024-03-02T06:29:49.945Z,7.04
2024-03-02T06:32:18.180Z,7.04
2024-03-02T06:34:46.393Z,7.07
2024-03-02T06:37:14.667Z,7.09
2024-03-02T06:39:42.931Z,7.10
2024-03-02T06:42:11.156Z,7.11
2024-03-02T06:44:39.359Z,7.14
2024-03-02T06:47:07.745Z,7.17
2024-03-02T06:49:36.458Z,7.20
2024-03-02T06:52:04.389Z,7.23
2024-03-02T06:54:32.780Z,7.25
2024-03-02T06:57:11.079Z,7.29
2024-03-02T06:59:39.367Z,7.29
2024-03-02T07:02:07.861Z,7.31
2024-03-02T07:04:36.145Z,7.36
2024-03-02T07:07:04.491Z,7.40
2024-03-02T07:09:32.899Z,7.44
2024-03-02T07:12:01.692Z,7.49
2024-03-02T07:14:56.562Z,7.53
2024-03-02T07:17:24.516Z,7.57
2024-03-02T07:19:52.815Z,7.61
2024-03-02T07:22:21.061Z,7.66
2024-03-02T07:24:49.592Z,7.69
2024-03-02T07:27:18.561Z,7.74
2024-03-02T07:29:46.848Z,7.77
2024-03-02T07:32:15.024Z,7.83
2024-03-02T07:34:43.244Z,7.83
2024-03-02T07:37:11.644Z,7.87
2024-03-02T07:39:40.232Z,7.89
2024-03-02T07:42:08.501Z,7.90
2024-03-02T07:44:37.113Z,7.93
2024-03-02T07:47:06.102Z,7.95
2024-03-02T07:49:34.335Z,8.00
2024-03-02T07:52:02.718Z,8.06
2024-03-02T07:54:31.139Z,8.07
2024-03-02T07:56:59.852Z,8.10
2024-03-02T07:59:28.068Z,8.15
2024-03-02T08:01:57.286Z,8.19
2024-03-02T08:04:25.771Z,8.25
2024-03-02T08:06:55.564Z,8.27
2024-03-02T08:09:23.921Z,8.35
2024-03-02T08:11:52.151Z,8.38
2024-03-02T08:14:20.524Z,8.43
2024-03-02T08:16:48.781Z,8.47
2024-03-02T08:19:17.150Z,8.52
2024-03-02T08:21:46.090Z,8.57
2024-03-02T08:24:14.373Z,8.60
2024-03-02T08:26:44.773Z,8.62
2024-03-02T08:29:13.903Z,8.64
2024-03-02T08:31:42.534Z,8.68
2024-03-02T08:34:11.369Z,8.70
2024-03-02T08:36:40.142Z,8.73
2024-03-02T08:39:16.256Z,8.75
2024-03-02T08:41:48.425Z,8.79
2024-03-02T08:44:16.924Z,8.86
2024-03-02T08:46:45.523Z,8.93
2024-03-02T08:49:14.139Z,8.98
2024-03-02T08:51:42.442Z,9.05
2024-03-02T08:54:10.932Z,9.04
2024-03-02T08:56:39.235Z,9.15
2024-03-02T08:59:07.457Z,9.24
2024-03-02T09:01:35.908Z,9.29
2024-03-02T09:04:04.248Z,9.36
2024-03-02T09:06:32.498Z,9.45
2024-03-02T09:09:00.761Z,9.49
2024-03-02T09:11:29.179Z,9.61
2024-03-02T09:13:58.897Z,9.66
2024-03-02T09:16:31.805Z,9.74
2024-03-02T09:19:01.392Z,9.82
2024-03-02T09:21:31.115Z,9.90
2024-03-02T09:23:59.510Z,10.06
2024-03-02T09:26:27.721Z,10.23
2024-03-02T09:28:55.960Z,10.30
2024-03-02T09:31:24.179Z,10.33
2024-03-02T09:33:52.456Z,10.37
2024-03-02T09:36:22.203Z,10.39
2024-03-02T09:38:50.610Z,10.45
2024-03-02T09:41:19.143Z,10.47
2024-03-02T09:43:47.451Z,10.48
2024-03-02T09:46:15.813Z,10.44
2024-03-02T09:48:44.057Z,10.51
2024-03-02T09:51:14.078Z,10.51
2024-03-02T09:53:42.641Z,10.51
2024-03-02T09:56:10.881Z,10.55
2024-03-02T09:58:40.316Z,10.52
2024-03-02T10:01:08.848Z,10.47
2024-03-02T10:03:37.460Z,10.48
2024-03-02T10:06:32.159Z,10.53
2024-03-02T10:09:00.393Z,10.56
2024-03-02T10:11:38.721Z,10.58
2024-03-02T10:14:14.882Z,10.61
2024-03-02T10:16:47.949Z,10.73
2024-03-02T10:19:25.216Z,10.90
2024-03-02T10:21:55.638Z,10.97
2024-03-02T10:24:25.294Z,11.09
2024-03-02T10:26:54.182Z,11.19
2024-03-02T10:29:30.859Z,11.29
2024-03-02T10:32:02.630Z,11.34
2024-03-02T10:34:30.879Z,11.51
2024-03-02T10:37:02.938Z,11.58
2024-03-02T10:39:32.511Z,11.75
2024-03-02T10:42:01.315Z,11.77
2024-03-02T10:44:29.774Z,11.81
2024-03-02T10:46:58.424Z,11.85
2024-03-02T10:49:29.023Z,11.89
2024-03-02T10:51:57.315Z,11.79
2024-03-02T10:54:27.979Z,11.65
2024-03-02T10:56:58.273Z,11.60
2024-03-02T10:59:31.752Z,11.52
2024-03-02T11:02:05.520Z,11.54
2024-03-02T11:04:35.989Z,11.63
2024-03-02T11:07:10.896Z,11.53
2024-03-02T11:10:09.564Z,11.56
2024-03-02T11:13:07.011Z,11.52
2024-03-02T11:15:38.819Z,11.47
2024-03-02T11:18:11.978Z,11.42
2024-03-02T11:20:43.982Z,11.45
2024-03-02T11:23:12.482Z,11.48
2024-03-02T11:25:41.046Z,11.54
2024-03-02T11:28:10.774Z,11.65
2024-03-02T11:30:40.988Z,11.52
2024-03-02T11:33:11.047Z,11.49
2024-03-02T11:35:44.801Z,11.40
2024-03-02T11:38:20.217Z,11.43
2024-03-02T11:40:48.452Z,11.42
2024-03-02T11:43:16.989Z,11.45
2024-03-02T11:45:51.052Z,11.58
2024-03-02T11:48:19.252Z,11.54
2024-03-02T11:50:52.955Z,11.58
2024-03-02T11:53:25.391Z,11.60
2024-03-02T11:56:01.783Z,11.63
2024-03-02T11:58:31.992Z,11.70
2024-03-02T12:01:00.308Z,11.67
2024-03-02T12:03:29.037Z,11.87
2024-03-02T12:05:58.120Z,11.90
2024-03-02T12:08:26.399Z,11.98
2024-03-02T12:11:17.263Z,12.03
2024-03-02T12:14:03.073Z,12.14
2024-03-02T12:16:31.355Z,12.15
2024-03-02T12:18:59.739Z,12.19
2024-03-02T12:21:32.970Z,12.10
2024-03-02T12:24:03.664Z,12.08
2024-03-02T12:26:32.299Z,12.17
2024-03-02T12:29:00.714Z,12.19
2024-03-02T12:31:28.897Z,12.14
2024-03-02T12:33:57.716Z,12.13
2024-03-02T12:36:26.232Z,12.20
2024-03-02T12:38:58.119Z,12.23
2024-03-02T12:41:32.860Z,12.34
2024-03-02T12:44:01.482Z,12.41
2024-03-02T12:46:30.219Z,12.39
2024-03-02T12:48:58.658Z,12.34
2024-03-02T12:51:27.350Z,12.31
2024-03-02T12:53:57.335Z,12.39
2024-03-02T12:56:28.875Z,12.38
2024-03-02T12:58:57.589Z,12.39
2024-03-02T13:01:25.902Z,12.44
2024-03-02T13:03:56.232Z,12.44
2024-03-02T13:06:35.802Z,12.51
2024-03-02T13:09:04.925Z,12.56
2024-03-02T13:11:33.225Z,12.75
2024-03-02T13:14:02.930Z,12.67
2024-03-02T13:16:33.265Z,12.66
2024-03-02T13:19:13.831Z,12.74
2024-03-02T13:21:42.133Z,12.73
2024-03-02T13:24:10.382Z,12.75
2024-03-02T13:26:38.831Z,12.68
2024-03-02T13:29:07.068Z,12.73
2024-03-02T13:31:35.302Z,12.73
2024-03-02T13:34:03.700Z,12.69
2024-03-02T13:36:32.010Z,12.88
2024-03-02T13:39:00.991Z,12.98
2024-03-02T13:41:29.196Z,12.94
2024-03-02T13:43:57.440Z,13.06
2024-03-02T13:46:25.754Z,13.19
2024-03-02T13:48:54.086Z,13.23
2024-03-02T13:51:22.318Z,13.24
2024-03-02T13:53:50.787Z,13.33
2024-03-02T13:56:18.979Z,13.25
2024-03-02T13:58:47.217Z,13.25
2024-03-02T14:01:15.914Z,13.23
2024-03-02T14:03:44.228Z,13.20
2024-03-02T14:06:12.557Z,13.11
2024-03-02T14:08:40.753Z,13.06
2024-03-02T14:11:10.270Z,13.12
2024-03-02T14:13:38.549Z,13.18
2024-03-02T14:16:07.246Z,13.09
2024-03-02T14:18:35.632Z,13.06
2024-03-02T14:21:04.953Z,13.14
2024-03-02T14:23:33.179Z,13.08
2024-03-02T14:26:01.568Z,13.04
2024-03-02T14:28:47.337Z,13.02
2024-03-02T14:31:18.659Z,12.88
2024-03-02T14:33:46.992Z,12.92
2024-03-02T14:36:15.578Z,12.90
2024-03-02T14:38:43.839Z,12.96
2024-03-02T14:41:12.192Z,13.01
2024-03-02T14:43:40.424Z,12.97
2024-03-02T14:46:10.446Z,13.02
2024-03-02T14:48:39.268Z,12.94
2024-03-02T14:51:07.662Z,12.90
2024-03-02T14:53:36.585Z,13.01
2024-03-02T14:56:05.378Z,13.03
2024-03-02T14:58:33.640Z,13.01
2024-03-02T15:01:01.949Z,12.98
2024-03-02T15:03:30.312Z,12.93
2024-03-02T15:05:58.603Z,12.90
2024-03-02T15:08:26.866Z,12.95
2024-03-02T15:10:56.933Z,12.91
2024-03-02T15:13:25.975Z,12.79
2024-03-02T15:15:54.405Z,12.75
2024-03-02T15:18:22.681Z,12.69
2024-03-02T15:20:51.011Z,12.84
2024-03-02T15:23:18.841Z,12.77
2024-03-02T15:25:47.715Z,12.75
2024-03-02T15:28:15.993Z,12.65
2024-03-02T15:30:45.998Z,12.60
2024-03-02T15:33:14.280Z,12.53
2024-03-02T15:35:42.520Z,12.51
2024-03-02T15:38:21.972Z,12.56
2024-03-02T15:40:56.969Z,12.53
2024-03-02T15:43:25.570Z,12.47
2024-03-02T15:45:53.835Z,12.49
2024-03-02T15:48:22.108Z,12.38
2024-03-02T15:50:51.256Z,12.46
2024-03-02T15:53:19.454Z,12.49
2024-03-02T15:55:47.996Z,12.37
2024-03-02T15:58:16.227Z,12.36
2024-03-02T16:00:44.587Z,12.45
2024-03-02T16:03:13.089Z,12.45
2024-03-02T16:05:43.962Z,12.40
2024-03-02T16:08:12.365Z,12.41
2024-03-02T16:10:40.641Z,12.30
2024-03-02T16:13:08.969Z,12.31
2024-03-02T16:15:37.579Z,12.17
2024-03-02T16:18:06.106Z,12.05
2024-03-02T16:20:34.830Z,12.04
2024-03-02T16:23:03.144Z,11.98
2024-03-02T16:25:32.131Z,11.88
2024-03-02T16:28:02.513Z,11.90
2024-03-02T16:30:30.824Z,11.82
2024-03-02T16:32:59.744Z,11.75
2024-03-02T16:35:28.220Z,11.72
2024-03-02T16:37:56.473Z,11.76
2024-03-02T16:40:24.709Z,11.79
2024-03-02T16:42:53.363Z,11.73
2024-03-02T16:45:21.622Z,11.78
2024-03-02T16:47:50.415Z,11.72
2024-03-02T16:50:18.691Z,11.58
2024-03-02T16:52:47.205Z,11.46
2024-03-02T16:55:15.836Z,11.39
2024-03-02T16:57:44.239Z,11.39
2024-03-02T17:00:12.972Z,11.29
2024-03-02T17:02:41.455Z,11.32
2024-03-02T17:05:09.965Z,11.23
2024-03-02T17:07:38.231Z,11.27
2024-03-02T17:10:07.245Z,11.28
2024-03-02T17:12:35.620Z,11.12
2024-03-02T17:15:05.458Z,11.09
2024-03-02T17:17:33.937Z,11.13
2024-03-02T17:20:02.652Z,11.07
2024-03-02T17:22:32.526Z,11.07
2024-03-02T17:25:00.999Z,10.95
2024-03-02T17:27:31.769Z,10.88
2024-03-02T17:30:00.539Z,10.80
2024-03-02T17:32:29.410Z,10.86
2024-03-02T17:35:00.266Z,10.92
2024-03-02T17:37:28.981Z,10.84
2024-03-02T17:39:57.264Z,10.75
2024-03-02T17:42:26.955Z,10.79
2024-03-02T17:44:55.211Z,10.68
2024-03-02T17:47:23.461Z,10.61
2024-03-02T17:49:51.729Z,10.59
2024-03-02T17:52:20.052Z,10.56
2024-03-02T17:54:48.311Z,10.51
2024-03-02T17:57:16.641Z,10.46
2024-03-02T17:59:45.756Z,10.43
2024-03-02T18:02:14.057Z,10.31
2024-03-02T18:04:43.184Z,10.28
2024-03-02T18:07:11.551Z,10.32
2024-03-02T18:09:39.854Z,10.24
2024-03-02T18:12:08.505Z,10.20
2024-03-02T18:14:40.307Z,10.21
2024-03-02T18:17:08.870Z,10.19
2024-03-02T18:19:36.794Z,10.13
2024-03-02T18:22:05.093Z,10.12
2024-03-02T18:24:37.471Z,10.09
2024-03-02T18:27:06.167Z,9.99
2024-03-02T18:29:34.516Z,9.95
2024-03-02T18:32:04.480Z,9.97
2024-03-02T18:34:33.583Z,9.90
2024-03-02T18:37:03.394Z,9.81
2024-03-02T18:39:31.744Z,9.85
2024-03-02T18:42:00.301Z,9.75
2024-03-02T18:44:28.637Z,9.74
2024-03-02T18:46:56.844Z,9.75
2024-03-02T18:49:27.847Z,9.65
2024-03-02T18:51:56.394Z,9.68
2024-03-02T18:54:24.650Z,9.56
2024-03-02T18:56:53.202Z,9.52
2024-03-02T18:59:21.559Z,9.49
2024-03-02T19:01:50.318Z,9.53
2024-03-02T19:04:19.642Z,9.41
2024-03-02T19:06:47.888Z,9.35
2024-03-02T19:09:16.411Z,9.31
2024-03-02T19:11:44.674Z,9.32
2024-03-02T19:14:12.892Z,9.30
2024-03-02T19:16:41.453Z,9.35
2024-03-02T19:19:09.693Z,9.29
2024-03-02T19:21:38.130Z,9.21
2024-03-02T19:24:06.469Z,9.18
2024-03-02T19:26:34.729Z,9.21
2024-03-02T19:29:02.900Z,9.13
2024-03-02T19:31:31.149Z,9.08
2024-03-02T19:33:59.510Z,9.06
2024-03-02T19:36:29.058Z,9.03
2024-03-02T19:38:57.403Z,9.16
2024-03-02T19:41:25.716Z,9.04
2024-03-02T19:43:54.184Z,9.07
2024-03-02T19:46:23.838Z,8.97
2024-03-02T19:48:52.141Z,8.97
2024-03-02T19:51:20.460Z,8.90
2024-03-02T19:53:48.665Z,8.85
2024-03-02T19:56:21.255Z,8.82
2024-03-02T19:58:49.460Z,8.80
2024-03-02T20:01:20.673Z,8.78
2024-03-02T20:03:51.107Z,8.76
2024-03-02T20:06:22.181Z,8.74
2024-03-02T20:08:50.850Z,8.72
2024-03-02T20:11:19.248Z,8.72
2024-03-02T20:13:47.480Z,8.73
2024-03-02T20:16:21.554Z,8.72
2024-03-02T20:18:50.800Z,8.76
2024-03-02T20:21:19.105Z,8.79
2024-03-02T20:23:47.336Z,8.79
2024-03-02T20:26:16.969Z,8.73
2024-03-02T20:28:46.269Z,8.72
2024-03-02T20:31:16.165Z,8.69
2024-03-02T20:33:44.522Z,8.68
2024-03-02T20:36:16.621Z,8.72
2024-03-02T20:38:45.136Z,8.71
2024-03-02T20:41:20.205Z,8.68
2024-03-02T20:43:48.873Z,8.72
2024-03-02T20:46:17.223Z,8.79
2024-03-02T20:48:47.336Z,8.70
2024-03-02T20:51:15.775Z,8.61
2024-03-02T20:53:43.989Z,8.56
2024-03-02T20:56:12.733Z,8.53
2024-03-02T20:58:42.317Z,8.49
2024-03-02T21:01:12.408Z,8.48
2024-03-02T21:03:41.619Z,8.47
2024-03-02T21:06:10.057Z,8.44
2024-03-02T21:08:38.440Z,8.43
2024-03-02T21:11:07.330Z,8.43
2024-03-02T21:13:35.610Z,8.39
2024-03-02T21:16:04.376Z,8.40
2024-03-02T21:18:32.730Z,8.32
2024-03-02T21:21:01.054Z,8.45
2024-03-02T21:23:30.415Z,8.40
2024-03-02T21:25:58.724Z,8.32
2024-03-02T21:28:27.154Z,8.27
2024-03-02T21:30:55.415Z,8.25
2024-03-02T21:33:23.502Z,8.26
2024-03-02T21:35:51.765Z,8.23
2024-03-02T21:38:19.964Z,8.28
2024-03-02T21:40:49.816Z,8.22
2024-03-02T21:43:18.527Z,8.25
2024-03-02T21:45:47.089Z,8.21
2024-03-02T21:48:15.357Z,8.27
2024-03-02T21:50:44.359Z,8.23
2024-03-02T21:53:13.647Z,8.14
2024-03-02T21:55:42.048Z,8.10
2024-03-02T21:58:10.385Z,8.06
2024-03-02T22:00:39.800Z,8.05
2024-03-02T22:03:08.267Z,8.06
2024-03-02T22:05:36.974Z,8.03
2024-03-02T22:08:05.296Z,8.02
2024-03-02T22:10:33.755Z,7.97
2024-03-02T22:13:01.815Z,7.92
2024-03-02T22:15:30.339Z,7.91
2024-03-02T22:18:01.575Z,7.91
2024-03-02T22:20:29.786Z,7.90
2024-03-02T22:22:58.553Z,7.95
2024-03-02T22:25:26.859Z,7.87
2024-03-02T22:27:56.936Z,7.87
2024-03-02T22:30:27.357Z,7.98
2024-03-02T22:32:57.305Z,7.86
2024-03-02T22:35:26.645Z,7.92
2024-03-02T22:37:55.268Z,7.95
2024-03-02T22:40:26.031Z,7.87
2024-03-02T22:42:54.430Z,7.78
2024-03-02T22:45:22.659Z,7.74
2024-03-02T22:47:51.672Z,7.89
2024-03-02T22:50:19.960Z,7.78
2024-03-02T22:52:48.192Z,7.81
2024-03-02T22:55:16.654Z,7.72
2024-03-02T22:57:45.076Z,7.58
2024-03-02T23:00:32.237Z,7.53
2024-03-02T23:03:01.086Z,7.48
2024-03-02T23:05:30.261Z,7.44
2024-03-02T23:07:58.727Z,7.39
2024-03-02T23:10:27.083Z,7.36
2024-03-02T23:12:55.449Z,7.34
2024-03-02T23:15:24.313Z,7.33
2024-03-02T23:17:52.538Z,7.30
2024-03-02T23:20:20.733Z,7.30
2024-03-02T23:22:49.023Z,7.26
2024-03-02T23:25:17.313Z,7.40
2024-03-02T23:27:45.648Z,7.32
2024-03-02T23:30:13.986Z,7.35
2024-03-02T23:32:42.441Z,7.31
2024-03-02T23:35:10.389Z,7.25
2024-03-02T23:37:38.633Z,7.21
2024-03-02T23:40:36.673Z,7.34
2024-03-02T23:43:04.446Z,7.24
2024-03-02T23:45:33.045Z,7.19
2024-03-02T23:48:01.727Z,7.13
2024-03-02T23:50:29.973Z,7.19
2024-03-02T23:52:58.157Z,7.13
2024-03-02T23:55:36.142Z,7.19
2024-03-02T23:58:11.214Z,7.23
